createdAt,value
2022-08-17T00:01:00.626Z,76.34
2022-08-17T00:02:21.252Z,75.36
2022-08-17T00:03:40.904Z,75.65
2022-08-17T00:04:48.432Z,76.49
2022-08-17T00:06:08.790Z,76.48
2022-08-17T00:07:11.799Z,77.39
2022-08-17T00:08:16.796Z,76.96
2022-08-17T00:09:19.976Z,77.49
2022-08-17T00:10:26.897Z,77.61
2022-08-17T00:11:40.246Z,77.45
2022-08-17T00:12:46.819Z,77.21
2022-08-17T00:13:55.142Z,77.73
2022-08-17T00:14:59.332Z,77.73
2022-08-17T00:16:06.855Z,76.90
2022-08-17T00:17:09.986Z,75.14
2022-08-17T00:19:06.241Z,74.65
2022-08-17T00:19:36.964Z,74.48
2022-08-17T00:20:40.018Z,74.96
2022-08-17T00:22:32.711Z,75.23
2022-08-17T00:23:17.421Z,75.83
2022-08-17T00:24:20.685Z,76.08
2022-08-17T00:25:23.678Z,77.60
2022-08-17T00:26:43.755Z,77.99
2022-08-17T00:27:51.650Z,78.05
2022-08-17T00:28:57.151Z,77.85
2022-08-17T00:30:00.097Z,77.04
2022-08-17T00:31:03.009Z,77.50
2022-08-17T00:33:11.806Z,77.72
2022-08-17T00:33:31.738Z,77.02
2022-08-17T00:34:37.771Z,77.11
2022-08-17T00:35:41.363Z,76.91
2022-08-17T00:36:44.308Z,77.10
2022-08-17T00:37:47.281Z,77.60
2022-08-17T00:38:51.579Z,77.93
2022-08-17T00:39:58.024Z,78.02
2022-08-17T00:41:14.066Z,78.88
2022-08-17T00:42:21.830Z,77.92
2022-08-17T00:43:42.308Z,77.80
2022-08-17T00:44:46.466Z,78.48
2022-08-17T00:45:50.205Z,78.33
2022-08-17T00:46:53.256Z,77.53
2022-08-17T00:47:56.151Z,77.90
2022-08-17T00:49:00.327Z,77.96
2022-08-17T00:50:05.514Z,78.46
2022-08-17T00:51:20.716Z,79.38
2022-08-17T00:52:28.936Z,79.04
2022-08-17T00:53:37.829Z,79.02
2022-08-17T00:54:43.740Z,78.78
2022-08-17T00:55:47.583Z,78.56
2022-08-17T00:56:58.936Z,78.53
2022-08-17T00:58:05.531Z,77.85
2022-08-17T00:59:12.634Z,76.62
2022-08-17T01:00:28.411Z,75.26
2022-08-17T01:01:32.986Z,75.32
2022-08-17T01:02:43.418Z,76.72
2022-08-17T01:03:46.422Z,77.78
2022-08-17T01:04:53.212Z,78.94
2022-08-17T01:05:59.123Z,78.29
2022-08-17T01:07:05.718Z,78.71
2022-08-17T01:08:13.592Z,78.42
2022-08-17T01:09:18.529Z,78.32
2022-08-17T01:10:59.690Z,77.82
2022-08-17T01:11:53.962Z,77.98
2022-08-17T01:12:57.083Z,76.90
2022-08-17T01:14:00.201Z,77.69
2022-08-17T01:15:07.041Z,77.25
2022-08-17T01:16:13.733Z,77.91
2022-08-17T01:17:17.019Z,77.97
2022-08-17T01:18:22.512Z,77.74
2022-08-17T01:19:31.323Z,78.14
2022-08-17T01:20:43.136Z,78.25
2022-08-17T01:22:09.411Z,78.66
2022-08-17T01:23:12.336Z,78.44
2022-08-17T01:24:24.071Z,78.40
2022-08-17T01:25:28.790Z,78.44
2022-08-17T01:26:33.497Z,78.77
2022-08-17T01:27:37.533Z,78.58
2022-08-17T01:28:54.807Z,78.77
2022-08-17T01:30:03.706Z,78.78
2022-08-17T01:31:09.080Z,79.02
2022-08-17T01:32:13.193Z,78.93
2022-08-17T01:33:16.322Z,78.57
2022-08-17T01:34:20.926Z,78.34
2022-08-17T01:35:23.991Z,77.43
2022-08-17T01:36:28.435Z,77.86
2022-08-17T01:37:41.218Z,78.22
2022-08-17T01:38:45.048Z,78.39
2022-08-17T01:39:54.185Z,78.60
2022-08-17T01:41:06.709Z,78.62
2022-08-17T01:42:25.260Z,78.61
2022-08-17T01:43:41.557Z,78.87
2022-08-17T01:44:44.674Z,78.50
2022-08-17T01:46:03.863Z,77.82
2022-08-17T01:47:07.007Z,77.56
2022-08-17T01:48:10.959Z,76.91
2022-08-17T01:49:13.997Z,76.78
2022-08-17T01:50:23.922Z,75.68
2022-08-17T01:51:33.490Z,75.86
2022-08-17T01:52:36.539Z,77.12
2022-08-17T01:53:45.757Z,75.48
2022-08-17T01:54:51.678Z,74.94
2022-08-17T01:55:59.384Z,76.19
2022-08-17T01:57:03.046Z,77.03
2022-08-17T01:58:10.293Z,78.14
2022-08-17T01:59:13.535Z,78.97
2022-08-17T02:00:18.830Z,79.23
2022-08-17T02:01:25.157Z,79.07
2022-08-17T02:02:31.224Z,79.26
2022-08-17T02:03:36.805Z,79.99
2022-08-17T02:04:39.761Z,80.08
2022-08-17T02:05:42.832Z,78.30
2022-08-17T02:06:53.090Z,77.68
2022-08-17T02:08:00.529Z,76.97
2022-08-17T02:09:05.479Z,78.08
2022-08-17T02:10:16.746Z,77.93
2022-08-17T02:11:23.449Z,76.94
2022-08-17T02:12:39.236Z,76.41
2022-08-17T02:13:48.848Z,78.27
2022-08-17T02:15:01.032Z,78.18
2022-08-17T02:16:04.726Z,77.82
2022-08-17T02:17:07.763Z,78.27
2022-08-17T02:18:13.102Z,78.53
2022-08-17T02:19:17.225Z,78.69
2022-08-17T02:20:42.159Z,79.07
2022-08-17T02:21:45.607Z,79.36
2022-08-17T02:22:49.587Z,79.32
2022-08-17T02:23:54.056Z,79.31
2022-08-17T02:25:00.522Z,79.04
2022-08-17T02:26:05.766Z,78.32
2022-08-17T02:27:08.755Z,78.43
2022-08-17T02:28:12.621Z,79.02
2022-08-17T02:29:16.155Z,78.48
2022-08-17T02:30:59.287Z,78.36
2022-08-17T02:31:43.712Z,78.40
2022-08-17T02:32:46.749Z,78.60
2022-08-17T02:34:00.422Z,79.16
2022-08-17T02:35:09.240Z,80.26
2022-08-17T02:36:13.861Z,80.96
2022-08-17T02:37:18.533Z,80.57
2022-08-17T02:38:21.790Z,80.76
2022-08-17T02:39:24.825Z,80.83
2022-08-17T02:40:36.434Z,80.87
2022-08-17T02:41:41.188Z,80.27
2022-08-17T02:42:45.502Z,80.27
2022-08-17T02:43:48.419Z,80.01
2022-08-17T02:44:51.281Z,79.47
2022-08-17T02:45:54.699Z,78.99
2022-08-17T02:46:57.678Z,79.14
2022-08-17T02:48:00.777Z,79.29
2022-08-17T02:49:05.275Z,79.78
2022-08-17T02:50:10.235Z,79.24
2022-08-17T02:51:13.836Z,78.63
2022-08-17T02:52:16.860Z,79.50
2022-08-17T02:53:39.822Z,79.53
2022-08-17T02:54:42.840Z,80.50
2022-08-17T02:55:45.877Z,80.55
2022-08-17T02:56:48.899Z,79.99
2022-08-17T02:57:52.993Z,79.51
2022-08-17T02:58:56.033Z,77.82
2022-08-17T02:59:58.979Z,78.05
2022-08-17T03:01:02.062Z,78.77
2022-08-17T03:02:07.697Z,77.62
2022-08-17T03:03:13.884Z,77.58
2022-08-17T03:04:17.030Z,78.14
2022-08-17T03:05:22.351Z,79.38
2022-08-17T03:06:25.615Z,80.04
2022-08-17T03:07:28.545Z,80.64
2022-08-17T03:08:32.805Z,81.15
2022-08-17T03:09:35.727Z,81.58
2022-08-17T03:10:38.978Z,82.04
2022-08-17T03:11:41.891Z,82.68
2022-08-17T03:12:46.076Z,82.61
2022-08-17T03:13:48.919Z,82.44
2022-08-17T03:14:54.850Z,82.30
2022-08-17T03:15:57.978Z,82.05
2022-08-17T03:17:01.489Z,82.12
2022-08-17T03:18:04.772Z,81.57
2022-08-17T03:19:07.807Z,81.39
2022-08-17T03:20:11.715Z,81.40
2022-08-17T03:21:14.702Z,81.94
2022-08-17T03:22:36.276Z,81.97
2022-08-17T03:23:42.394Z,81.83
2022-08-17T03:24:45.180Z,82.05
2022-08-17T03:25:48.081Z,81.91
2022-08-17T03:26:56.370Z,81.98
2022-08-17T03:27:59.845Z,81.87
2022-08-17T03:29:06.711Z,81.75
2022-08-17T03:30:13.348Z,81.87
2022-08-17T03:31:18.803Z,81.53
2022-08-17T03:32:21.765Z,81.70
2022-08-17T03:33:24.732Z,81.62
2022-08-17T03:34:27.762Z,81.93
2022-08-17T03:35:37.861Z,82.77
2022-08-17T03:36:40.865Z,82.54
2022-08-17T03:37:43.769Z,82.27
2022-08-17T03:38:46.881Z,82.19
2022-08-17T03:39:51.757Z,82.14
2022-08-17T03:40:57.338Z,82.00
2022-08-17T03:42:32.262Z,81.79
2022-08-17T03:43:39.703Z,81.74
2022-08-17T03:44:42.700Z,81.84
2022-08-17T03:46:04.206Z,81.88
2022-08-17T03:47:27.674Z,81.78
2022-08-17T03:48:50.310Z,81.74
2022-08-17T03:50:25.379Z,81.80
2022-08-17T03:51:46.852Z,81.02
2022-08-17T03:53:09.248Z,78.95
2022-08-17T03:54:30.889Z,78.91
2022-08-17T03:55:52.312Z,79.85
2022-08-17T03:57:10.704Z,78.59
2022-08-17T03:58:15.200Z,79.32
2022-08-17T03:59:23.360Z,80.68
2022-08-17T04:00:29.004Z,81.35
2022-08-17T04:01:32.303Z,81.32
2022-08-17T04:02:36.357Z,81.46
2022-08-17T04:03:39.314Z,81.43
2022-08-17T04:04:42.278Z,81.65
2022-08-17T04:05:45.210Z,81.65
2022-08-17T04:06:48.438Z,82.28
2022-08-17T04:07:52.083Z,82.46
2022-08-17T04:08:56.056Z,81.69
2022-08-17T04:09:59.713Z,81.14
2022-08-17T04:11:02.687Z,79.87
2022-08-17T04:12:06.158Z,80.67
2022-08-17T04:13:10.482Z,81.32
2022-08-17T04:14:13.386Z,81.85
2022-08-17T04:15:17.026Z,81.62
2022-08-17T04:16:20.352Z,81.48
2022-08-17T04:17:29.644Z,82.02
2022-08-17T04:18:43.332Z,82.05
2022-08-17T04:19:46.326Z,81.78
2022-08-17T04:20:49.617Z,81.60
2022-08-17T04:21:52.609Z,81.22
2022-08-17T04:23:28.637Z,79.77
2022-08-17T04:24:33.285Z,79.78
2022-08-17T04:25:38.737Z,79.19
2022-08-17T04:26:54.054Z,79.51
2022-08-17T04:28:02.109Z,80.17
2022-08-17T04:29:05.097Z,80.70
2022-08-17T04:30:08.823Z,80.96
2022-08-17T04:31:13.887Z,80.92
2022-08-17T04:32:19.597Z,80.79
2022-08-17T04:33:45.664Z,80.99
2022-08-17T04:34:48.591Z,80.92
2022-08-17T04:35:54.427Z,80.88
2022-08-17T04:36:57.580Z,80.96
2022-08-17T04:38:00.860Z,81.05
2022-08-17T04:39:04.480Z,80.26
2022-08-17T04:40:27.549Z,80.57
2022-08-17T04:41:49.411Z,81.60
2022-08-17T04:43:23.582Z,81.82
2022-08-17T04:44:36.823Z,81.76
2022-08-17T04:45:51.223Z,81.63
2022-08-17T04:46:59.640Z,81.66
2022-08-17T04:48:06.743Z,81.07
2022-08-17T04:49:11.597Z,81.01
2022-08-17T04:50:14.494Z,80.64
2022-08-17T04:51:28.310Z,80.84
2022-08-17T04:52:43.249Z,80.59
2022-08-17T04:53:54.618Z,81.02
2022-08-17T04:54:57.945Z,79.68
2022-08-17T04:56:01.166Z,79.65
2022-08-17T04:57:04.161Z,79.67
2022-08-17T04:58:08.034Z,79.52
2022-08-17T04:59:17.941Z,80.01
2022-08-17T05:00:21.559Z,79.99
2022-08-17T05:01:26.499Z,79.82
2022-08-17T05:02:29.460Z,79.61
2022-08-17T05:03:35.896Z,77.87
2022-08-17T05:04:42.066Z,77.47
2022-08-17T05:05:49.997Z,77.06
2022-08-17T05:06:54.732Z,76.53
2022-08-17T05:08:00.136Z,76.38
2022-08-17T05:09:03.741Z,75.04
2022-08-17T05:10:07.298Z,72.79
2022-08-17T05:11:10.824Z,71.86
2022-08-17T05:12:16.382Z,72.98
2022-08-17T05:13:23.140Z,73.07
2022-08-17T05:14:32.966Z,70.71
2022-08-17T05:15:44.888Z,71.59
2022-08-17T05:16:49.634Z,71.29
2022-08-17T05:17:52.599Z,71.46
2022-08-17T05:18:57.006Z,71.01
2022-08-17T05:19:59.850Z,71.06
2022-08-17T05:21:03.194Z,70.49
2022-08-17T05:22:06.733Z,70.64
2022-08-17T05:23:13.073Z,70.19
2022-08-17T05:24:38.545Z,70.42
2022-08-17T05:25:42.307Z,70.20
2022-08-17T05:26:50.230Z,70.62
2022-08-17T05:27:55.423Z,69.51
2022-08-17T05:29:00.440Z,67.88
2022-08-17T05:30:06.327Z,68.61
2022-08-17T05:31:09.565Z,66.99
2022-08-17T05:32:37.773Z,67.56
2022-08-17T05:33:46.296Z,67.96
2022-08-17T05:34:52.870Z,67.61
2022-08-17T05:35:58.696Z,66.19
2022-08-17T05:37:01.675Z,65.52
2022-08-17T05:38:05.776Z,64.35
2022-08-17T05:39:08.910Z,64.04
2022-08-17T05:40:26.742Z,65.58
2022-08-17T05:41:35.853Z,64.66
2022-08-17T05:42:38.849Z,64.97
2022-08-17T05:43:43.003Z,66.33
2022-08-17T05:44:45.934Z,65.62
2022-08-17T05:46:22.786Z,65.29
2022-08-17T05:47:27.174Z,64.80
2022-08-17T05:48:41.965Z,65.21
2022-08-17T05:49:44.925Z,65.89
2022-08-17T05:51:04.212Z,64.34
2022-08-17T05:52:40.367Z,63.19
2022-08-17T05:53:53.030Z,63.36
2022-08-17T05:55:14.366Z,62.17
2022-08-17T05:56:32.286Z,61.42
2022-08-17T05:57:39.883Z,60.37
2022-08-17T05:59:15.745Z,60.37
2022-08-17T06:00:36.394Z,60.38
2022-08-17T06:01:51.517Z,61.58
2022-08-17T06:03:12.899Z,59.80
2022-08-17T06:04:31.054Z,59.74
2022-08-17T06:05:55.975Z,59.03
2022-08-17T06:07:14.240Z,60.35
2022-08-17T06:08:46.288Z,59.88
2022-08-17T06:10:02.509Z,60.62
2022-08-17T06:11:19.780Z,60.59
2022-08-17T06:12:45.153Z,56.35
2022-08-17T06:13:53.420Z,57.17
2022-08-17T06:15:26.518Z,58.33
2022-08-17T06:16:41.387Z,58.39
2022-08-17T06:17:44.886Z,58.36
2022-08-17T06:19:02.739Z,58.81
2022-08-17T06:20:11.945Z,57.38
2022-08-17T06:21:18.530Z,57.41
2022-08-17T06:22:33.636Z,56.61
2022-08-17T06:23:51.034Z,56.62
2022-08-17T06:25:20.129Z,56.74
2022-08-17T06:26:37.332Z,55.26
2022-08-17T06:27:45.716Z,56.70
2022-08-17T06:29:08.208Z,54.77
2022-08-17T06:30:26.490Z,54.21
2022-08-17T06:31:35.184Z,55.71
2022-08-17T06:32:41.607Z,55.67
2022-08-17T06:33:47.716Z,52.88
2022-08-17T06:34:51.806Z,53.71
2022-08-17T06:36:06.188Z,53.35
2022-08-17T06:37:21.545Z,53.77
2022-08-17T06:38:54.676Z,55.33
2022-08-17T06:40:28.442Z,54.84
2022-08-17T06:41:38.170Z,56.67
2022-08-17T06:43:09.115Z,53.37
2022-08-17T06:44:43.312Z,52.08
2022-08-17T06:45:49.559Z,51.35
2022-08-17T06:47:02.602Z,52.52
2022-08-17T06:48:35.307Z,52.79
2022-08-17T06:50:19.443Z,53.49
2022-08-17T06:51:40.923Z,52.31
2022-08-17T06:52:54.267Z,52.04
2022-08-17T06:54:17.336Z,51.84
2022-08-17T06:55:28.082Z,52.01
2022-08-17T06:56:53.119Z,51.66
2022-08-17T06:58:05.895Z,53.82
2022-08-17T06:59:25.657Z,55.17
2022-08-17T07:00:33.870Z,54.09
2022-08-17T07:02:52.281Z,52.71
2022-08-17T07:04:14.040Z,53.39
2022-08-17T07:05:20.052Z,53.71
2022-08-17T07:06:27.424Z,52.78
2022-08-17T07:07:49.327Z,53.30
2022-08-17T07:08:58.423Z,52.53
2022-08-17T07:10:03.176Z,50.37
2022-08-17T07:11:14.562Z,51.21
2022-08-17T07:12:28.015Z,50.81
2022-08-17T07:13:54.147Z,49.77
2022-08-17T07:15:11.807Z,49.59
2022-08-17T07:16:25.701Z,51.08
2022-08-17T07:17:46.600Z,49.54
2022-08-17T07:18:53.363Z,49.74
2022-08-17T07:20:11.828Z,49.07
2022-08-17T07:21:37.200Z,50.06
2022-08-17T07:23:13.798Z,50.59
2022-08-17T07:24:37.537Z,50.24
2022-08-17T07:25:40.620Z,50.13
2022-08-17T07:26:43.503Z,49.98
2022-08-17T07:27:53.188Z,49.71
2022-08-17T07:28:57.591Z,50.33
2022-08-17T07:30:10.991Z,48.93
2022-08-17T07:31:17.732Z,48.22
2022-08-17T07:32:32.092Z,48.29
2022-08-17T07:33:37.066Z,48.70
2022-08-17T07:35:16.999Z,49.02
2022-08-17T07:36:29.819Z,47.68
2022-08-17T07:37:34.573Z,48.45
2022-08-17T07:38:59.762Z,48.78
2022-08-17T07:40:29.838Z,46.98
2022-08-17T07:41:59.102Z,46.96
2022-08-17T07:43:24.461Z,46.80
2022-08-17T07:44:27.661Z,45.68
2022-08-17T07:45:37.772Z,45.64
2022-08-17T07:47:17.946Z,45.74
2022-08-17T07:48:27.209Z,47.64
2022-08-17T07:49:37.318Z,47.20
2022-08-17T07:50:42.035Z,47.00
2022-08-17T07:51:52.720Z,47.13
2022-08-17T07:52:55.733Z,46.78
2022-08-17T07:54:22.659Z,46.02
2022-08-17T07:55:35.097Z,46.60
2022-08-17T07:57:26.624Z,45.83
2022-08-17T07:58:35.029Z,46.30
2022-08-17T07:59:43.312Z,45.52
2022-08-17T08:00:47.044Z,45.60
2022-08-17T08:02:01.146Z,45.13
2022-08-17T08:03:34.266Z,44.17
2022-08-17T08:05:02.136Z,44.28
2022-08-17T08:06:21.045Z,44.40
2022-08-17T08:07:25.740Z,44.12
2022-08-17T08:08:36.249Z,43.04
2022-08-17T08:09:47.424Z,44.10
2022-08-17T08:11:15.697Z,43.90
2022-08-17T08:12:42.606Z,43.70
2022-08-17T08:13:49.836Z,41.99
2022-08-17T08:14:58.268Z,41.81
2022-08-17T08:16:29.925Z,42.32
2022-08-17T08:17:38.449Z,41.80
2022-08-17T08:18:56.067Z,41.58
2022-08-17T08:20:01.255Z,41.76
2022-08-17T08:21:39.658Z,41.04
2022-08-17T08:22:45.927Z,40.43
2022-08-17T08:24:16.666Z,39.65
2022-08-17T08:25:25.643Z,39.60
2022-08-17T08:26:37.757Z,39.59
2022-08-17T08:27:57.675Z,40.28
2022-08-17T08:29:19.444Z,39.94
2022-08-17T08:30:22.875Z,39.86
2022-08-17T08:32:03.874Z,38.60
2022-08-17T08:33:20.459Z,38.98
2022-08-17T08:35:03.007Z,39.96
2022-08-17T08:36:11.815Z,39.17
2022-08-17T08:37:52.513Z,38.60
2022-08-17T08:38:56.857Z,38.02
2022-08-17T08:40:30.288Z,38.11
2022-08-17T08:41:54.903Z,39.27
2022-08-17T08:43:29.108Z,40.96
2022-08-17T08:45:00.853Z,37.43
2022-08-17T08:46:20.240Z,37.47
2022-08-17T08:47:42.100Z,34.57
2022-08-17T08:49:12.648Z,35.18
2022-08-17T08:50:52.545Z,34.62
2022-08-17T08:52:01.430Z,35.03
2022-08-17T08:53:16.179Z,34.49
2022-08-17T08:54:41.038Z,33.64
2022-08-17T08:56:02.804Z,33.97
2022-08-17T08:57:25.650Z,32.91
2022-08-17T08:58:42.079Z,33.57
2022-08-17T09:00:14.950Z,34.42
2022-08-17T09:01:28.246Z,32.75
2022-08-17T09:02:53.056Z,32.60
2022-08-17T09:04:25.011Z,32.50
2022-08-17T09:05:50.342Z,32.86
2022-08-17T09:07:15.762Z,32.70
2022-08-17T09:08:32.541Z,33.26
2022-08-17T09:09:49.952Z,33.53
2022-08-17T09:11:16.821Z,32.78
2022-08-17T09:12:55.238Z,33.01
2022-08-17T09:14:07.221Z,31.88
2022-08-17T09:15:35.179Z,32.08
2022-08-17T09:16:47.345Z,32.50
2022-08-17T09:18:59.121Z,32.27
2022-08-17T09:19:50.872Z,36.76
2022-08-17T09:21:01.838Z,34.70
2022-08-17T09:22:32.664Z,33.02
2022-08-17T09:23:35.510Z,34.45
2022-08-17T09:24:46.848Z,33.70
2022-08-17T09:25:56.441Z,32.03
2022-08-17T09:27:31.052Z,33.64
2022-08-17T09:28:39.034Z,33.82
2022-08-17T09:29:49.355Z,32.31
2022-08-17T09:30:56.509Z,32.66
2022-08-17T09:32:04.024Z,33.52
2022-08-17T09:33:09.416Z,32.25
2022-08-17T09:34:17.454Z,32.59
2022-08-17T09:35:36.588Z,32.62
2022-08-17T09:37:11.201Z,33.16
2022-08-17T09:38:23.161Z,32.53
2022-08-17T09:39:36.721Z,32.92
2022-08-17T09:41:01.932Z,32.25
2022-08-17T09:42:10.926Z,32.07
2022-08-17T09:43:32.194Z,31.75
2022-08-17T09:44:49.474Z,32.10
2022-08-17T09:45:58.207Z,32.45
2022-08-17T09:48:02.806Z,33.29
2022-08-17T09:49:43.101Z,30.54
2022-08-17T09:51:21.976Z,32.38
2022-08-17T09:52:28.772Z,29.91
2022-08-17T09:53:32.299Z,31.31
2022-08-17T09:54:40.530Z,31.63
2022-08-17T09:56:10.195Z,30.24
2022-08-17T09:57:33.531Z,30.24
2022-08-17T09:59:17.176Z,31.25
2022-08-17T10:00:37.488Z,30.49
2022-08-17T10:01:57.553Z,29.80
2022-08-17T10:03:38.973Z,29.55
2022-08-17T10:04:54.758Z,29.59
2022-08-17T10:06:24.812Z,29.26
2022-08-17T10:07:57.494Z,29.56
2022-08-17T10:09:35.768Z,29.58
2022-08-17T10:10:52.265Z,29.74
2022-08-17T10:12:30.135Z,29.03
2022-08-17T10:13:54.259Z,29.19
2022-08-17T10:15:17.371Z,29.59
2022-08-17T10:16:52.455Z,28.58
2022-08-17T10:18:20.230Z,28.62
2022-08-17T10:19:40.088Z,29.64
2022-08-17T10:21:19.276Z,28.98
2022-08-17T10:22:53.224Z,28.62
2022-08-17T10:24:28.194Z,28.98
2022-08-17T10:25:55.753Z,28.50
2022-08-17T10:27:02.064Z,28.51
2022-08-17T10:28:12.949Z,28.85
2022-08-17T10:29:46.222Z,28.00
2022-08-17T10:31:16.595Z,28.37
2022-08-17T10:32:34.380Z,27.71
2022-08-17T10:33:57.997Z,28.11
2022-08-17T10:35:34.301Z,26.57
2022-08-17T10:37:00.397Z,26.23
2022-08-17T10:38:34.169Z,27.59
2022-08-17T10:39:52.569Z,26.93
2022-08-17T10:41:40.317Z,27.71
2022-08-17T10:43:12.951Z,26.85
2022-08-17T10:44:48.643Z,27.45
2022-08-17T10:46:30.950Z,26.28
2022-08-17T10:48:06.283Z,26.32
2022-08-17T10:49:18.505Z,27.41
2022-08-17T10:50:56.338Z,26.90
2022-08-17T10:52:20.539Z,26.25
2022-08-17T10:53:32.629Z,26.20
2022-08-17T10:55:09.241Z,26.32
2022-08-17T10:56:15.926Z,27.23
2022-08-17T10:57:27.524Z,29.02
2022-08-17T10:58:46.268Z,26.85
2022-08-17T10:59:51.766Z,26.74
2022-08-17T11:00:54.603Z,27.14
2022-08-17T11:02:18.652Z,28.00
2022-08-17T11:03:24.979Z,27.76
2022-08-17T11:04:37.078Z,27.56
2022-08-17T11:06:22.919Z,27.75
2022-08-17T11:07:58.999Z,29.35
2022-08-17T11:09:44.133Z,27.95
2022-08-17T11:10:55.027Z,26.66
2022-08-17T11:12:38.811Z,27.74
2022-08-17T11:14:07.107Z,26.71
2022-08-17T11:15:20.192Z,26.46
2022-08-17T11:16:42.007Z,28.52
2022-08-17T11:17:50.510Z,29.37
2022-08-17T11:18:53.799Z,29.42
2022-08-17T11:20:14.826Z,29.90
2022-08-17T11:21:43.987Z,31.01
2022-08-17T11:23:18.639Z,30.72
2022-08-17T11:24:43.443Z,30.98
2022-08-17T11:25:55.755Z,30.81
2022-08-17T11:27:14.142Z,30.34
2022-08-17T11:28:34.680Z,31.39
2022-08-17T11:30:02.246Z,31.60
2022-08-17T11:31:38.561Z,32.14
2022-08-17T11:32:54.689Z,31.93
2022-08-17T11:34:04.876Z,31.45
2022-08-17T11:35:14.945Z,33.22
2022-08-17T11:36:34.499Z,31.72
2022-08-17T11:37:53.311Z,31.15
2022-08-17T11:39:23.208Z,30.57
2022-08-17T11:40:54.238Z,31.39
2022-08-17T11:42:06.720Z,31.16
2022-08-17T11:43:27.670Z,31.16
2022-08-17T11:44:52.772Z,31.35
2022-08-17T11:46:14.018Z,31.79
2022-08-17T11:48:26.735Z,32.04
2022-08-17T11:50:00.424Z,30.16
2022-08-17T11:51:28.375Z,30.17
2022-08-17T11:52:45.953Z,29.81
2022-08-17T11:53:50.285Z,30.89
2022-08-17T11:54:53.171Z,29.37
2022-08-17T11:55:59.111Z,29.66
2022-08-17T11:57:28.163Z,28.98
2022-08-17T11:58:38.768Z,29.61
2022-08-17T11:59:46.283Z,27.78
2022-08-17T12:01:02.146Z,27.83
2022-08-17T12:02:20.190Z,28.56
2022-08-17T12:03:53.940Z,28.38
2022-08-17T12:05:21.489Z,26.64
2022-08-17T12:06:30.371Z,26.62
2022-08-17T12:07:41.944Z,26.14
2022-08-17T12:08:55.338Z,26.41
2022-08-17T12:10:00.781Z,26.93
2022-08-17T12:11:10.222Z,26.31
2022-08-17T12:12:20.423Z,25.67
2022-08-17T12:13:30.613Z,26.36
2022-08-17T12:15:11.505Z,26.37
2022-08-17T12:16:19.771Z,27.00
2022-08-17T12:17:39.237Z,27.56
2022-08-17T12:18:59.558Z,27.80
2022-08-17T12:20:15.823Z,28.71
2022-08-17T12:21:23.454Z,28.95
2022-08-17T12:22:44.558Z,29.67
2022-08-17T12:23:51.997Z,28.51
2022-08-17T12:24:55.909Z,29.18
2022-08-17T12:26:19.679Z,29.90
2022-08-17T12:28:05.521Z,29.60
2022-08-17T12:29:35.889Z,28.71
2022-08-17T12:30:41.582Z,28.60
2022-08-17T12:31:47.735Z,27.45
2022-08-17T12:32:51.300Z,27.16
2022-08-17T12:33:54.899Z,27.87
2022-08-17T12:34:57.926Z,27.37
2022-08-17T12:36:07.759Z,26.88
2022-08-17T12:37:18.865Z,26.60
2022-08-17T12:38:32.545Z,26.55
2022-08-17T12:39:39.170Z,26.00
2022-08-17T12:40:55.438Z,26.21
2022-08-17T12:42:02.824Z,25.71
2022-08-17T12:43:08.820Z,25.46
2022-08-17T12:44:12.459Z,26.67
2022-08-17T12:45:29.623Z,25.42
2022-08-17T12:46:46.777Z,25.66
2022-08-17T12:48:04.630Z,25.44
2022-08-17T12:49:16.388Z,25.56
2022-08-17T12:50:29.159Z,24.74
2022-08-17T12:51:34.427Z,25.27
2022-08-17T12:52:40.590Z,25.39
2022-08-17T12:53:53.367Z,24.64
2022-08-17T12:55:06.505Z,25.29
2022-08-17T12:56:13.931Z,24.79
2022-08-17T12:57:46.518Z,25.20
2022-08-17T12:58:56.562Z,24.40
2022-08-17T13:00:11.142Z,24.48
2022-08-17T13:01:17.069Z,24.18
2022-08-17T13:02:28.631Z,23.71
2022-08-17T13:03:43.118Z,24.25
2022-08-17T13:04:46.618Z,24.82
2022-08-17T13:06:09.201Z,24.82
2022-08-17T13:07:14.631Z,24.44
2022-08-17T13:08:29.115Z,24.51
2022-08-17T13:09:40.123Z,24.70
2022-08-17T13:10:53.601Z,24.45
2022-08-17T13:12:00.530Z,24.82
2022-08-17T13:13:17.875Z,24.32
2022-08-17T13:14:22.299Z,24.10
2022-08-17T13:15:32.463Z,25.19
2022-08-17T13:16:36.617Z,23.67
2022-08-17T13:17:56.826Z,24.01
2022-08-17T13:19:19.062Z,23.64
2022-08-17T13:20:54.797Z,23.40
2022-08-17T13:22:01.540Z,23.67
2022-08-17T13:23:12.640Z,23.31
2022-08-17T13:24:17.107Z,23.66
2022-08-17T13:25:20.043Z,24.10
2022-08-17T13:26:29.828Z,24.48
2022-08-17T13:27:34.218Z,23.83
2022-08-17T13:28:38.341Z,24.04
2022-08-17T13:29:53.984Z,24.58
2022-08-17T13:31:21.557Z,24.45
2022-08-17T13:32:37.729Z,23.25
2022-08-17T13:33:45.087Z,23.69
2022-08-17T13:35:14.993Z,23.06
2022-08-17T13:36:33.724Z,23.56
2022-08-17T13:37:37.714Z,23.42
2022-08-17T13:38:49.817Z,23.92
2022-08-17T13:40:14.226Z,23.01
2022-08-17T13:41:33.910Z,22.83
2022-08-17T13:42:51.968Z,23.19
2022-08-17T13:43:56.264Z,23.01
2022-08-17T13:45:00.426Z,23.37
2022-08-17T13:46:34.342Z,22.62
2022-08-17T13:47:37.295Z,23.48
2022-08-17T13:48:42.259Z,22.66
2022-08-17T13:49:49.467Z,22.29
2022-08-17T13:50:55.518Z,22.84
2022-08-17T13:51:58.960Z,23.27
2022-08-17T13:53:18.620Z,23.20
2022-08-17T13:54:34.659Z,22.26
2022-08-17T13:55:37.844Z,22.49
2022-08-17T13:56:50.330Z,22.09
2022-08-17T13:58:04.211Z,22.17
2022-08-17T13:59:15.962Z,22.45
2022-08-17T14:00:37.283Z,23.41
2022-08-17T14:01:52.833Z,22.71
2022-08-17T14:02:58.563Z,22.50
2022-08-17T14:04:28.210Z,22.54
2022-08-17T14:05:32.600Z,22.67
2022-08-17T14:06:52.203Z,22.88
2022-08-17T14:08:06.616Z,22.80
2022-08-17T14:09:10.264Z,22.88
2022-08-17T14:10:17.687Z,22.65
2022-08-17T14:11:22.546Z,22.89
2022-08-17T14:12:27.924Z,23.41
2022-08-17T14:13:32.454Z,23.07
2022-08-17T14:14:35.485Z,24.10
2022-08-17T14:15:54.562Z,22.13
2022-08-17T14:16:59.511Z,22.74
2022-08-17T14:18:02.538Z,23.67
2022-08-17T14:19:06.267Z,22.58
2022-08-17T14:20:12.542Z,23.72
2022-08-17T14:21:15.532Z,22.99
2022-08-17T14:22:27.256Z,22.87
2022-08-17T14:23:32.239Z,23.16
2022-08-17T14:24:44.494Z,23.16
2022-08-17T14:25:48.141Z,23.94
2022-08-17T14:26:55.030Z,23.58
2022-08-17T14:27:58.366Z,22.95
2022-08-17T14:29:02.038Z,24.08
2022-08-17T14:30:08.295Z,23.36
2022-08-17T14:31:12.111Z,24.82
2022-08-17T14:32:22.265Z,23.91
2022-08-17T14:33:25.271Z,23.68
2022-08-17T14:34:28.209Z,23.55
2022-08-17T14:35:31.135Z,22.68
2022-08-17T14:36:34.492Z,23.88
2022-08-17T14:37:37.980Z,23.56
2022-08-17T14:38:41.128Z,24.36
2022-08-17T14:39:44.320Z,24.09
2022-08-17T14:40:49.446Z,24.06
2022-08-17T14:41:53.297Z,24.12
2022-08-17T14:42:57.918Z,24.19
2022-08-17T14:44:00.841Z,24.49
2022-08-17T14:45:06.380Z,24.39
2022-08-17T14:46:29.361Z,24.40
2022-08-17T14:47:37.150Z,24.20
2022-08-17T14:48:41.201Z,24.18
2022-08-17T14:49:47.718Z,23.51
2022-08-17T14:50:50.850Z,24.01
2022-08-17T14:51:54.213Z,24.90
2022-08-17T14:52:58.123Z,24.59
2022-08-17T14:54:02.494Z,25.24
2022-08-17T14:55:06.837Z,24.04
2022-08-17T14:56:09.817Z,24.48
2022-08-17T14:57:33.179Z,24.03
2022-08-17T14:58:37.159Z,25.03
2022-08-17T14:59:41.579Z,24.75
2022-08-17T15:00:44.635Z,24.43
2022-08-17T15:01:48.300Z,24.77
2022-08-17T15:02:57.043Z,25.32
2022-08-17T15:04:01.204Z,24.99
2022-08-17T15:05:08.574Z,25.08
2022-08-17T15:06:14.965Z,24.86
2022-08-17T15:07:20.296Z,23.96
2022-08-17T15:08:30.660Z,23.92
2022-08-17T15:09:35.765Z,24.58
2022-08-17T15:10:39.811Z,23.85
2022-08-17T15:11:43.406Z,23.82
2022-08-17T15:12:46.584Z,23.75
2022-08-17T15:13:53.096Z,25.36
2022-08-17T15:14:57.322Z,24.38
2022-08-17T15:16:04.074Z,24.00
2022-08-17T15:17:07.228Z,24.73
2022-08-17T15:18:10.804Z,25.09
2022-08-17T15:19:20.033Z,25.30
2022-08-17T15:20:27.808Z,25.38
2022-08-17T15:21:31.313Z,25.06
2022-08-17T15:22:34.307Z,25.74
2022-08-17T15:23:41.037Z,25.36
2022-08-17T15:24:46.710Z,25.25
2022-08-17T15:25:52.806Z,25.97
2022-08-17T15:26:56.026Z,26.17
2022-08-17T15:28:00.702Z,25.22
2022-08-17T15:29:04.153Z,25.43
2022-08-17T15:30:08.293Z,25.59
2022-08-17T15:31:11.860Z,25.05
2022-08-17T15:32:29.953Z,24.66
2022-08-17T15:33:33.387Z,25.96
2022-08-17T15:34:36.863Z,24.75
2022-08-17T15:35:40.922Z,25.27
2022-08-17T15:36:49.426Z,25.87
2022-08-17T15:37:53.175Z,25.88
2022-08-17T15:38:58.971Z,24.84